createdAt,value
2023-05-10T00:00:37.401Z,9.67
2023-05-10T00:01:37.520Z,9.67
2023-05-10T00:02:37.754Z,9.67
2023-05-10T00:03:37.746Z,9.65
2023-05-10T00:04:37.709Z,9.63
2023-05-10T00:05:37.800Z,9.60
2023-05-10T00:06:37.905Z,9.59
2023-05-10T00:07:37.971Z,9.58
2023-05-10T00:08:38.081Z,9.57
2023-05-10T00:09:38.122Z,9.55
2023-05-10T00:10:38.228Z,9.54
2023-05-10T00:11:38.320Z,9.54
2023-05-10T00:12:38.429Z,9.54
2023-05-10T00:13:38.494Z,9.54
2023-05-10T00:14:38.689Z,9.55
2023-05-10T00:15:38.696Z,9.55
2023-05-10T00:16:38.783Z,9.54
2023-05-10T00:17:38.826Z,9.54
2023-05-10T00:18:38.889Z,9.53
2023-05-10T00:19:38.999Z,9.53
2023-05-10T00:20:39.044Z,9.54
2023-05-10T00:21:39.133Z,9.54
2023-05-10T00:22:39.217Z,9.55
2023-05-10T00:23:39.266Z,9.55
2023-05-10T00:24:39.358Z,9.53
2023-05-10T00:25:39.449Z,9.52
2023-05-10T00:26:39.521Z,9.52
2023-05-10T00:27:39.630Z,9.51
2023-05-10T00:28:39.685Z,9.51
2023-05-10T00:29:39.787Z,9.50
2023-05-10T00:30:39.834Z,9.50
2023-05-10T00:31:39.929Z,9.48
2023-05-10T00:32:40.037Z,9.45
2023-05-10T00:33:40.072Z,9.42
2023-05-10T00:34:40.170Z,9.39
2023-05-10T00:35:40.263Z,9.37
2023-05-10T00:36:40.318Z,9.36
2023-05-10T00:37:40.402Z,9.36
2023-05-10T00:38:40.491Z,9.37
2023-05-10T00:39:40.575Z,9.37
2023-05-10T00:40:40.660Z,9.36
2023-05-10T00:41:40.740Z,9.35
2023-05-10T00:42:40.824Z,9.33
2023-05-10T00:43:40.892Z,9.33
2023-05-10T00:44:40.972Z,9.33
2023-05-10T00:45:41.083Z,9.33
2023-05-10T00:46:41.159Z,9.33
2023-05-10T00:47:41.240Z,9.33
2023-05-10T00:48:41.300Z,9.32
2023-05-10T00:49:41.393Z,9.31
2023-05-10T00:50:41.489Z,9.29
2023-05-10T00:51:41.546Z,9.27
2023-05-10T00:52:41.625Z,9.25
2023-05-10T00:53:41.699Z,9.22
2023-05-10T00:54:41.792Z,9.21
2023-05-10T00:55:41.892Z,9.20
2023-05-10T00:56:41.940Z,9.18
2023-05-10T00:57:42.004Z,9.17
2023-05-10T00:58:42.114Z,9.15
2023-05-10T00:59:42.188Z,9.13
2023-05-10T01:00:42.290Z,9.12
2023-05-10T01:01:42.378Z,9.11
2023-05-10T01:02:42.506Z,9.09
2023-05-10T01:03:42.551Z,9.08
2023-05-10T01:04:42.638Z,9.06
2023-05-10T01:05:42.662Z,9.04
2023-05-10T01:06:42.776Z,9.03
2023-05-10T01:07:42.845Z,9.02
2023-05-10T01:08:42.912Z,9.02
2023-05-10T01:09:42.998Z,9.02
2023-05-10T01:10:43.087Z,9.02
2023-05-10T01:11:43.174Z,9.00
2023-05-10T01:12:43.395Z,8.99
2023-05-10T01:13:43.327Z,8.99
2023-05-10T01:14:43.412Z,8.98
2023-05-10T01:15:43.502Z,8.97
2023-05-10T01:16:43.577Z,8.97
2023-05-10T01:17:43.728Z,8.96
2023-05-10T01:18:43.738Z,8.95
2023-05-10T01:19:43.813Z,8.95
2023-05-10T01:20:43.902Z,8.96
2023-05-10T01:21:50.385Z,8.96
2023-05-10T01:22:46.649Z,8.94
2023-05-10T01:23:44.143Z,8.92
2023-05-10T01:24:44.219Z,8.91
2023-05-10T01:25:44.304Z,8.91
2023-05-10T01:26:44.404Z,8.89
2023-05-10T01:27:44.481Z,8.88
2023-05-10T01:28:44.562Z,8.89
2023-05-10T01:29:44.675Z,8.89
2023-05-10T01:30:44.765Z,8.89
2023-05-10T01:31:44.903Z,8.89
2023-05-10T01:32:44.973Z,8.88
2023-05-10T01:33:45.003Z,8.88
2023-05-10T01:34:45.080Z,8.89
2023-05-10T01:35:45.166Z,8.90
2023-05-10T01:36:45.218Z,8.90
2023-05-10T01:37:45.301Z,8.90
2023-05-10T01:38:45.371Z,8.90
2023-05-10T01:39:45.446Z,8.90
2023-05-10T01:40:45.604Z,8.91
2023-05-10T01:41:45.616Z,8.91
2023-05-10T01:42:45.681Z,8.90
2023-05-10T01:43:45.763Z,8.89
2023-05-10T01:44:45.856Z,8.86
2023-05-10T01:45:45.944Z,8.84
2023-05-10T01:46:46.045Z,8.83
2023-05-10T01:47:46.128Z,8.83
2023-05-10T01:48:46.172Z,8.82
2023-05-10T01:49:46.254Z,8.82
2023-05-10T01:50:46.358Z,8.81
2023-05-10T01:51:46.407Z,8.81
2023-05-10T01:52:46.499Z,8.81
2023-05-10T01:53:46.589Z,8.82
2023-05-10T01:54:46.667Z,8.83
2023-05-10T01:55:46.719Z,8.84
2023-05-10T01:56:46.800Z,8.84
2023-05-10T01:57:46.887Z,8.83
2023-05-10T01:58:46.986Z,8.82
2023-05-10T01:59:47.083Z,8.80
2023-05-10T02:00:47.204Z,8.78
2023-05-10T02:01:47.235Z,8.77
2023-05-10T02:02:47.407Z,8.77
2023-05-10T02:03:47.434Z,8.76
2023-05-10T02:04:47.461Z,8.74
2023-05-10T02:05:47.554Z,8.72
2023-05-10T02:06:47.625Z,8.71
2023-05-10T02:07:47.723Z,8.69
2023-05-10T02:08:47.825Z,8.67
2023-05-10T02:09:47.887Z,8.66
2023-05-10T02:10:47.989Z,8.65
2023-05-10T02:11:48.058Z,8.64
2023-05-10T02:12:48.163Z,8.63
2023-05-10T02:13:48.269Z,8.64
2023-05-10T02:14:48.329Z,8.64
2023-05-10T02:15:48.367Z,8.65
2023-05-10T02:16:48.475Z,8.66
2023-05-10T02:17:48.569Z,8.68
2023-05-10T02:18:48.628Z,8.70
2023-05-10T02:19:48.715Z,8.69
2023-05-10T02:20:48.819Z,8.69
2023-05-10T02:21:48.902Z,8.67
2023-05-10T02:22:48.975Z,8.64
2023-05-10T02:23:49.054Z,8.61
2023-05-10T02:24:49.152Z,8.58
2023-05-10T02:25:49.214Z,8.57
2023-05-10T02:26:49.305Z,8.57
2023-05-10T02:27:49.391Z,8.58
2023-05-10T02:28:49.488Z,8.60
2023-05-10T02:29:49.582Z,8.60
2023-05-10T02:30:49.687Z,8.59
2023-05-10T02:31:49.835Z,8.57
2023-05-10T02:32:49.868Z,8.56
2023-05-10T02:33:49.909Z,8.56
2023-05-10T02:34:50.035Z,8.55
2023-05-10T02:35:50.077Z,8.53
2023-05-10T02:36:50.172Z,8.52
2023-05-10T02:37:50.258Z,8.51
2023-05-10T02:38:50.340Z,8.50
2023-05-10T02:39:50.432Z,8.49
2023-05-10T02:40:50.532Z,8.47
2023-05-10T02:41:50.589Z,8.45
2023-05-10T02:42:50.665Z,8.43
2023-05-10T02:43:50.756Z,8.42
2023-05-10T02:44:50.814Z,8.41
2023-05-10T02:45:50.988Z,8.39
2023-05-10T02:46:50.996Z,8.37
2023-05-10T02:47:51.078Z,8.35
2023-05-10T02:48:51.146Z,8.35
2023-05-10T02:49:51.247Z,8.34
2023-05-10T02:50:51.292Z,8.34
2023-05-10T02:51:51.372Z,8.34
2023-05-10T02:52:51.479Z,8.34
2023-05-10T02:53:51.516Z,8.34
2023-05-10T02:54:51.610Z,8.33
2023-05-10T02:55:51.725Z,8.32
2023-05-10T02:56:51.770Z,8.32
2023-05-10T02:57:51.875Z,8.31
2023-05-10T02:58:51.948Z,8.31
2023-05-10T02:59:52.028Z,8.30
2023-05-10T03:00:52.214Z,8.30
2023-05-10T03:01:52.284Z,8.29
2023-05-10T03:02:52.338Z,8.28
2023-05-10T03:03:52.322Z,8.27
2023-05-10T03:04:52.474Z,8.26
2023-05-10T03:05:52.479Z,8.26
2023-05-10T03:06:52.758Z,8.27
2023-05-10T03:07:52.712Z,8.26
2023-05-10T03:08:52.706Z,8.25
2023-05-10T03:09:52.789Z,8.24
2023-05-10T03:10:52.878Z,8.24
2023-05-10T03:11:52.968Z,8.24
2023-05-10T03:12:53.079Z,8.25
2023-05-10T03:13:53.157Z,8.26
2023-05-10T03:14:53.209Z,8.27
2023-05-10T03:15:53.317Z,8.28
2023-05-10T03:16:53.422Z,8.28
2023-05-10T03:17:53.525Z,8.27
2023-05-10T03:18:53.549Z,8.26
2023-05-10T03:19:53.667Z,8.25
2023-05-10T03:20:53.734Z,8.25
2023-05-10T03:21:53.842Z,8.26
2023-05-10T03:22:53.898Z,8.26
2023-05-10T03:23:53.941Z,8.26
2023-05-10T03:24:54.023Z,8.27
2023-05-10T03:25:54.112Z,8.28
2023-05-10T03:26:54.211Z,8.28
2023-05-10T03:27:54.269Z,8.28
2023-05-10T03:28:54.360Z,8.28
2023-05-10T03:29:54.423Z,8.27
2023-05-10T03:30:54.509Z,8.27
2023-05-10T03:31:54.668Z,8.27
2023-05-10T03:32:54.723Z,8.26
2023-05-10T03:33:54.788Z,8.25
2023-05-10T03:34:54.867Z,8.25
2023-05-10T03:35:54.965Z,8.24
2023-05-10T03:36:55.038Z,8.22
2023-05-10T03:37:55.085Z,8.21
2023-05-10T03:38:55.177Z,8.20
2023-05-10T03:39:55.262Z,8.19
2023-05-10T03:40:55.351Z,8.19
2023-05-10T03:41:55.432Z,8.19
2023-05-10T03:42:55.516Z,8.20
2023-05-10T03:43:55.600Z,8.21
2023-05-10T03:44:55.701Z,8.23
2023-05-10T03:45:55.769Z,8.25
2023-05-10T03:46:55.883Z,8.27
2023-05-10T03:47:55.973Z,8.29
2023-05-10T03:48:56.032Z,8.30
2023-05-10T03:49:56.116Z,8.32
2023-05-10T03:50:56.199Z,8.34
2023-05-10T03:51:56.281Z,8.38
2023-05-10T03:52:56.399Z,8.42
2023-05-10T03:53:56.490Z,8.45
2023-05-10T03:54:56.584Z,8.48
2023-05-10T03:55:56.650Z,8.52
2023-05-10T03:56:56.771Z,8.57
2023-05-10T03:57:56.846Z,8.61
2023-05-10T03:58:56.929Z,8.65
2023-05-10T03:59:56.979Z,8.69
2023-05-10T04:00:57.062Z,8.74
2023-05-10T04:01:57.222Z,8.78
2023-05-10T04:02:57.341Z,8.82
2023-05-10T04:03:57.418Z,8.86
2023-05-10T04:04:57.384Z,8.90
2023-05-10T04:05:57.510Z,8.95
2023-05-10T04:06:57.568Z,8.99
2023-05-10T04:07:57.645Z,9.04
2023-05-10T04:08:57.735Z,9.09
2023-05-10T04:09:57.822Z,9.13
2023-05-10T04:10:57.892Z,9.18
2023-05-10T04:11:57.974Z,9.22
2023-05-10T04:12:58.105Z,9.24
2023-05-10T04:13:58.135Z,9.27
2023-05-10T04:14:58.234Z,9.30
2023-05-10T04:15:58.305Z,9.32
2023-05-10T04:16:58.402Z,9.35
2023-05-10T04:17:58.543Z,9.38
2023-05-10T04:18:58.531Z,9.42
2023-05-10T04:19:58.622Z,9.46
2023-05-10T04:20:58.705Z,9.50
2023-05-10T04:21:58.778Z,9.53
2023-05-10T04:22:58.869Z,9.55
2023-05-10T04:23:58.953Z,9.57
2023-05-10T04:24:59.056Z,9.61
2023-05-10T04:25:59.135Z,9.66
2023-05-10T04:26:59.236Z,9.69
2023-05-10T04:27:59.290Z,9.72
2023-05-10T04:28:59.374Z,9.76
2023-05-10T04:29:59.466Z,9.81
2023-05-10T04:30:59.580Z,9.86
2023-05-10T04:31:59.637Z,9.90
2023-05-10T04:34:15.065Z,11.03
2023-05-10T04:35:16.169Z,10.59
2023-05-10T04:36:16.250Z,10.34
2023-05-10T04:37:16.355Z,10.23
2023-05-10T04:38:16.428Z,10.21
2023-05-10T04:39:16.519Z,10.21
2023-05-10T04:40:16.859Z,10.22
2023-05-10T04:41:16.646Z,10.24
2023-05-10T04:42:16.736Z,10.27
2023-05-10T04:43:16.825Z,10.29
2023-05-10T04:44:16.851Z,10.31
2023-05-10T04:45:16.938Z,10.34
2023-05-10T04:46:17.073Z,10.38
2023-05-10T04:47:17.082Z,10.41
2023-05-10T04:49:37.897Z,11.64
2023-05-10T04:50:38.955Z,11.19
2023-05-10T04:51:39.026Z,10.92
2023-05-10T04:52:39.096Z,10.80
2023-05-10T04:53:39.190Z,10.76
2023-05-10T04:54:39.255Z,10.78
2023-05-10T04:55:39.345Z,10.84
2023-05-10T04:56:39.416Z,10.89
2023-05-10T04:57:39.524Z,10.92
2023-05-10T04:58:39.590Z,10.94
2023-05-10T04:59:39.689Z,10.99
2023-05-10T05:00:39.762Z,11.07
2023-05-10T05:01:39.877Z,11.19
2023-05-10T05:02:39.993Z,11.28
2023-05-10T05:03:40.073Z,11.39
2023-05-10T05:04:40.066Z,11.52
2023-05-10T05:05:40.152Z,11.66
2023-05-10T05:06:40.250Z,11.80
2023-05-10T05:07:40.297Z,11.92
2023-05-10T05:08:40.413Z,11.98
2023-05-10T05:09:40.462Z,11.98
2023-05-10T05:10:40.523Z,11.97
2023-05-10T05:11:40.610Z,11.99
2023-05-10T05:12:40.685Z,12.09
2023-05-10T05:13:40.783Z,12.25
2023-05-10T05:14:40.871Z,12.46
2023-05-10T05:15:40.973Z,12.71
2023-05-10T05:16:41.054Z,12.94
2023-05-10T05:17:41.169Z,13.15
2023-05-10T05:18:41.226Z,13.38
2023-05-10T05:19:41.348Z,13.62
2023-05-10T05:20:41.394Z,13.84
2023-05-10T05:21:41.481Z,14.05
2023-05-10T05:22:41.570Z,14.23
2023-05-10T05:23:41.687Z,14.32
2023-05-10T05:24:41.745Z,14.36
2023-05-10T05:25:41.804Z,14.44
2023-05-10T05:26:41.899Z,14.51
2023-05-10T05:27:41.982Z,14.59
2023-05-10T05:28:42.068Z,14.69
2023-05-10T05:29:42.142Z,14.78
2023-05-10T05:30:43.085Z,14.90
2023-05-10T05:31:42.281Z,14.95
2023-05-10T05:32:42.393Z,15.00
2023-05-10T05:33:42.422Z,15.09
2023-05-10T05:34:42.475Z,15.13
2023-05-10T05:35:42.562Z,15.09
2023-05-10T05:36:42.647Z,15.03
2023-05-10T05:37:42.744Z,14.98
2023-05-10T05:38:42.835Z,14.98
2023-05-10T05:39:42.932Z,15.04
2023-05-10T05:40:43.034Z,15.08
2023-05-10T05:41:43.127Z,15.07
2023-05-10T05:42:43.184Z,15.10
2023-05-10T05:43:43.281Z,15.16
2023-05-10T05:44:43.378Z,15.19
2023-05-10T05:45:44.458Z,15.19
2023-05-10T05:46:43.544Z,15.14
2023-05-10T05:47:43.616Z,15.08
2023-05-10T05:48:43.690Z,14.95
2023-05-10T05:49:43.790Z,14.82
2023-05-10T05:50:43.889Z,14.83
2023-05-10T05:51:43.958Z,14.93
2023-05-10T05:52:44.042Z,14.98
2023-05-10T05:53:44.145Z,14.95
2023-05-10T05:54:44.256Z,14.92
2023-05-10T05:55:44.325Z,14.95
2023-05-10T05:56:44.430Z,15.03
2023-05-10T05:57:44.495Z,15.11
2023-05-10T05:58:44.565Z,15.16
2023-05-10T05:59:44.662Z,15.22
2023-05-10T06:00:44.788Z,15.29
2023-05-10T06:01:44.859Z,15.36
2023-05-10T06:02:45.255Z,15.45
2023-05-10T06:03:45.058Z,15.47
2023-05-10T06:04:45.094Z,15.40
2023-05-10T06:05:45.184Z,15.29
2023-05-10T06:06:45.271Z,15.16
2023-05-10T06:07:45.360Z,15.03
2023-05-10T06:08:45.467Z,14.91
2023-05-10T06:09:45.543Z,14.79
2023-05-10T06:10:45.578Z,14.67
2023-05-10T06:11:45.676Z,14.56
2023-05-10T06:12:45.757Z,14.50
2023-05-10T06:13:45.840Z,14.48
2023-05-10T06:14:45.903Z,14.46
2023-05-10T06:15:46.001Z,14.42
2023-05-10T06:16:46.145Z,14.39
2023-05-10T06:17:46.195Z,14.37
2023-05-10T06:18:46.233Z,14.37
2023-05-10T06:19:46.316Z,14.35
2023-05-10T06:20:46.382Z,14.33
2023-05-10T06:21:46.452Z,14.35
2023-05-10T06:22:46.502Z,14.36
2023-05-10T06:23:46.561Z,14.36
2023-05-10T06:24:46.658Z,14.35
2023-05-10T06:25:46.721Z,14.37
2023-05-10T06:26:46.811Z,14.40
2023-05-10T06:27:50.972Z,14.44
2023-05-10T06:28:47.003Z,14.48
2023-05-10T06:29:47.079Z,14.51
2023-05-10T06:30:47.193Z,14.52
2023-05-10T06:31:47.378Z,14.51
2023-05-10T06:32:47.400Z,14.54
2023-05-10T06:33:47.404Z,14.59
2023-05-10T06:34:47.497Z,14.67
2023-05-10T06:35:47.592Z,14.74
2023-05-10T06:36:47.674Z,14.76
2023-05-10T06:37:47.753Z,14.71
2023-05-10T06:38:47.871Z,14.65
2023-05-10T06:39:47.919Z,14.66
2023-05-10T06:40:48.022Z,14.72
2023-05-10T06:41:48.112Z,14.81
2023-05-10T06:42:48.174Z,14.89
2023-05-10T06:43:48.227Z,14.99
2023-05-10T06:44:48.330Z,15.13
2023-05-10T06:45:48.395Z,15.31
2023-05-10T06:46:48.577Z,15.51
2023-05-10T06:47:48.537Z,15.73
2023-05-10T06:48:48.605Z,15.96
2023-05-10T06:49:48.694Z,16.16
2023-05-10T06:50:48.792Z,16.29
2023-05-10T06:51:48.852Z,16.38
2023-05-10T06:52:49.534Z,16.39
2023-05-10T06:53:49.032Z,16.37
2023-05-10T06:54:49.127Z,16.44
2023-05-10T06:55:49.182Z,16.64
2023-05-10T06:56:49.297Z,16.81
2023-05-10T06:57:49.365Z,16.94
2023-05-10T06:58:49.484Z,17.07
2023-05-10T06:59:49.503Z,17.30
2023-05-10T07:00:49.575Z,17.57
2023-05-10T07:01:49.707Z,17.83
2023-05-10T07:02:49.876Z,18.04
2023-05-10T07:03:49.824Z,18.22
2023-05-10T07:04:49.974Z,18.21
2023-05-10T07:05:50.031Z,18.16
2023-05-10T07:06:50.080Z,18.21
2023-05-10T07:07:50.156Z,18.23
2023-05-10T07:08:50.289Z,18.13
2023-05-10T07:09:50.310Z,18.01
2023-05-10T07:10:50.397Z,17.95
2023-05-10T07:11:50.536Z,18.05
2023-05-10T07:12:50.646Z,18.28
2023-05-10T07:13:50.638Z,18.43
2023-05-10T07:14:50.722Z,18.53
2023-05-10T07:15:50.817Z,18.72
2023-05-10T07:16:50.868Z,18.94
2023-05-10T07:17:51.060Z,19.09
2023-05-10T07:18:51.029Z,19.11
2023-05-10T07:19:51.129Z,19.06
2023-05-10T07:20:51.252Z,18.93
2023-05-10T07:21:51.312Z,18.69
2023-05-10T07:22:51.357Z,18.46
2023-05-10T07:23:51.472Z,18.42
2023-05-10T07:24:51.531Z,18.57
2023-05-10T07:25:51.606Z,18.79
2023-05-10T07:26:51.704Z,18.94
2023-05-10T07:27:51.765Z,18.97
2023-05-10T07:28:51.877Z,18.91
2023-05-10T07:29:51.968Z,18.74
2023-05-10T07:30:52.141Z,18.53
2023-05-10T07:31:52.203Z,18.40
2023-05-10T07:32:52.238Z,18.21
2023-05-10T07:33:52.320Z,17.97
2023-05-10T07:34:52.381Z,17.86
2023-05-10T07:35:52.535Z,17.82
2023-05-10T07:36:52.529Z,17.75
2023-05-10T07:37:52.607Z,17.67
2023-05-10T07:38:52.680Z,17.60
2023-05-10T07:39:52.739Z,17.56
2023-05-10T07:40:52.858Z,17.48
2023-05-10T07:41:52.942Z,17.40
2023-05-10T07:42:52.983Z,17.37
2023-05-10T07:43:53.072Z,17.39
2023-05-10T07:44:53.217Z,17.40
2023-05-10T07:45:55.992Z,17.43
2023-05-10T07:46:53.301Z,17.43
2023-05-10T07:47:53.464Z,17.37
2023-05-10T07:48:53.459Z,17.28
2023-05-10T07:49:53.528Z,17.26
2023-05-10T07:50:53.615Z,17.32
2023-05-10T07:51:53.672Z,17.35
2023-05-10T07:52:53.763Z,17.30
2023-05-10T07:53:53.821Z,17.26
2023-05-10T07:54:53.906Z,17.28
2023-05-10T07:55:53.967Z,17.31
2023-05-10T07:56:54.621Z,17.33
2023-05-10T07:57:54.106Z,17.35
2023-05-10T07:58:54.218Z,17.41
2023-05-10T07:59:54.287Z,17.49
2023-05-10T08:00:54.654Z,17.62
2023-05-10T08:01:54.460Z,17.74
2023-05-10T08:02:54.615Z,17.66
2023-05-10T08:03:54.747Z,17.50
2023-05-10T08:04:54.707Z,17.44
2023-05-10T08:05:54.796Z,17.50
2023-05-10T08:06:54.880Z,17.47
2023-05-10T08:07:55.010Z,17.37
2023-05-10T08:08:55.021Z,17.37
2023-05-10T08:09:55.115Z,17.41
2023-05-10T08:10:55.190Z,17.40
2023-05-10T08:11:55.240Z,17.37
2023-05-10T08:12:55.350Z,17.37
2023-05-10T08:13:55.403Z,17.39
2023-05-10T08:14:55.492Z,17.38
2023-05-10T08:15:55.596Z,17.32
2023-05-10T08:16:55.641Z,17.30
2023-05-10T08:17:55.722Z,17.32
2023-05-10T08:18:55.827Z,17.40
2023-05-10T08:19:55.862Z,17.46
2023-05-10T08:20:55.944Z,17.50
2023-05-10T08:21:56.033Z,17.55
2023-05-10T08:22:56.100Z,17.62
2023-05-10T08:23:56.180Z,17.70
2023-05-10T08:24:56.287Z,17.76
2023-05-10T08:25:56.345Z,17.80
2023-05-10T08:26:56.399Z,17.77
2023-05-10T08:27:56.461Z,17.74
2023-05-10T08:28:56.519Z,17.70
2023-05-10T08:29:56.603Z,17.64
2023-05-10T08:30:56.761Z,17.58
2023-05-10T08:31:56.777Z,17.53
2023-05-10T08:32:56.878Z,17.48
2023-05-10T08:33:56.904Z,17.38
2023-05-10T08:34:56.978Z,17.23
2023-05-10T08:35:57.034Z,17.09
2023-05-10T08:36:57.136Z,17.01
2023-05-10T08:37:57.241Z,16.87
2023-05-10T08:38:57.310Z,16.72
2023-05-10T08:39:57.396Z,16.57
2023-05-10T08:40:57.657Z,16.48
2023-05-10T08:41:57.541Z,16.47
2023-05-10T08:42:57.598Z,16.53
2023-05-10T08:43:57.717Z,16.58
2023-05-10T08:44:57.752Z,16.58
2023-05-10T08:45:57.821Z,16.54
2023-05-10T08:46:57.936Z,16.53
2023-05-10T08:47:58.013Z,16.56
2023-05-10T08:48:58.061Z,16.57
2023-05-10T08:49:58.116Z,16.58
2023-05-10T08:50:58.182Z,16.61
2023-05-10T08:51:58.287Z,16.58
2023-05-10T08:52:58.344Z,16.48
2023-05-10T08:53:58.444Z,16.33
2023-05-10T08:54:58.514Z,16.07
2023-05-10T08:55:58.580Z,15.87
2023-05-10T08:56:58.674Z,15.85
2023-05-10T08:57:58.724Z,15.92
2023-05-10T08:58:58.829Z,15.98
2023-05-10T08:59:58.887Z,16.03
2023-05-10T09:00:59.015Z,16.05
2023-05-10T09:01:59.055Z,16.10
2023-05-10T09:02:59.197Z,16.22
2023-05-10T09:03:59.312Z,16.30
2023-05-10T09:04:59.413Z,16.23
2023-05-10T09:05:59.413Z,16.11
2023-05-10T09:06:59.447Z,16.03
2023-05-10T09:07:59.552Z,15.92
2023-05-10T09:08:59.607Z,15.73
2023-05-10T09:09:59.709Z,15.59
2023-05-10T09:10:59.784Z,15.49
2023-05-10T09:11:59.842Z,15.38
2023-05-10T09:12:59.936Z,15.28
2023-05-10T09:14:00.068Z,15.19
2023-05-10T09:15:00.125Z,15.14
2023-05-10T09:16:04.453Z,15.12
2023-05-10T09:17:00.312Z,15.10
2023-05-10T09:18:00.529Z,15.05
2023-05-10T09:19:00.459Z,15.00
2023-05-10T09:20:00.520Z,14.96
2023-05-10T09:21:00.598Z,14.91
2023-05-10T09:22:00.668Z,14.81
2023-05-10T09:23:00.728Z,14.68
2023-05-10T09:24:00.785Z,14.57
2023-05-10T09:25:00.867Z,14.49
2023-05-10T09:26:00.920Z,14.50
2023-05-10T09:27:01.036Z,14.56
2023-05-10T09:28:01.111Z,14.59
2023-05-10T09:29:01.171Z,14.56
2023-05-10T09:30:01.296Z,14.53
2023-05-10T09:31:01.405Z,14.52
2023-05-10T09:32:01.391Z,14.45
2023-05-10T09:33:01.488Z,14.25
2023-05-10T09:34:01.529Z,13.97
2023-05-10T09:35:01.619Z,13.77
2023-05-10T09:36:01.690Z,13.62
2023-05-10T09:37:01.828Z,13.45
2023-05-10T09:38:01.878Z,13.29
2023-05-10T09:39:01.966Z,13.21
2023-05-10T09:40:02.035Z,13.17
2023-05-10T09:41:02.115Z,13.12
2023-05-10T09:42:02.167Z,13.05
2023-05-10T09:43:02.265Z,12.99
2023-05-10T09:44:02.377Z,12.98
2023-05-10T09:45:02.453Z,12.98
2023-05-10T09:46:02.557Z,12.95
2023-05-10T09:47:02.704Z,12.89
2023-05-10T09:48:02.764Z,12.81
2023-05-10T09:49:02.734Z,12.76
2023-05-10T09:50:02.796Z,12.71
2023-05-10T09:51:02.911Z,12.67
2023-05-10T09:52:02.991Z,12.61
2023-05-10T09:53:03.044Z,12.55
2023-05-10T09:54:03.106Z,12.53
2023-05-10T09:55:03.197Z,12.52
2023-05-10T09:56:03.313Z,12.52
2023-05-10T09:57:03.355Z,12.49
2023-05-10T09:58:03.451Z,12.41
2023-05-10T09:59:03.567Z,12.36
2023-05-10T10:00:03.601Z,12.36
2023-05-10T10:01:03.733Z,12.34
2023-05-10T10:02:03.935Z,12.34
2023-05-10T10:03:03.876Z,12.34
2023-05-10T10:04:03.925Z,12.35
2023-05-10T10:05:04.098Z,12.36
2023-05-10T10:06:04.086Z,12.35
2023-05-10T10:07:04.159Z,12.36
2023-05-10T10:08:04.210Z,12.37
2023-05-10T10:09:04.275Z,12.37
2023-05-10T10:10:04.364Z,12.38
2023-05-10T10:11:04.467Z,12.37
2023-05-10T10:12:04.549Z,12.36
2023-05-10T10:13:04.617Z,12.36
2023-05-10T10:14:04.718Z,12.38
2023-05-10T10:15:04.785Z,12.40
2023-05-10T10:16:04.865Z,12.42
2023-05-10T10:17:08.577Z,12.44
2023-05-10T10:18:05.196Z,12.44
2023-05-10T10:19:05.167Z,12.45
2023-05-10T10:20:05.142Z,12.45
2023-05-10T10:21:05.235Z,12.46
2023-05-10T10:22:05.391Z,12.48
2023-05-10T10:23:05.377Z,12.52
2023-05-10T10:24:05.441Z,12.57
2023-05-10T10:25:05.538Z,12.61
2023-05-10T10:26:05.644Z,12.62
2023-05-10T10:27:05.713Z,12.63
2023-05-10T10:28:05.794Z,12.62
2023-05-10T10:29:05.851Z,12.61
2023-05-10T10:30:05.949Z,12.63
2023-05-10T10:31:06.070Z,12.67
2023-05-10T10:32:06.146Z,12.72
2023-05-10T10:33:16.584Z,12.75
2023-05-10T10:34:06.298Z,12.78
2023-05-10T10:35:06.366Z,12.83
2023-05-10T10:36:06.451Z,12.91
2023-05-10T10:37:06.537Z,12.97
2023-05-10T10:38:06.657Z,13.00
2023-05-10T10:39:06.716Z,13.05
2023-05-10T10:40:06.776Z,13.12
2023-05-10T10:41:06.896Z,13.18
2023-05-10T10:42:06.952Z,13.20
2023-05-10T10:43:07.051Z,13.21
2023-05-10T10:44:07.110Z,13.24
2023-05-10T10:45:07.166Z,13.31
2023-05-10T10:46:07.260Z,13.36
2023-05-10T10:47:08.237Z,13.41
2023-05-10T10:48:07.444Z,13.46
2023-05-10T10:49:07.477Z,13.47
2023-05-10T10:50:07.579Z,13.45
2023-05-10T10:51:07.650Z,13.49
2023-05-10T10:52:07.726Z,13.56
2023-05-10T10:53:07.938Z,13.59
2023-05-10T10:54:07.918Z,13.60
2023-05-10T10:55:07.985Z,13.61
2023-05-10T10:56:08.049Z,13.61
2023-05-10T10:57:08.153Z,13.63
2023-05-10T10:58:08.207Z,13.70
2023-05-10T10:59:08.304Z,13.81
2023-05-10T11:00:08.380Z,13.88
2023-05-10T11:01:08.537Z,13.87
2023-05-10T11:02:08.544Z,13.81
2023-05-10T11:03:08.731Z,13.76
2023-05-10T11:04:08.802Z,13.73
2023-05-10T11:05:08.832Z,13.70
2023-05-10T11:06:08.899Z,13.66
2023-05-10T11:07:08.985Z,13.60
2023-05-10T11:08:09.110Z,13.55
2023-05-10T11:09:09.139Z,13.55
2023-05-10T11:10:09.205Z,13.56
2023-05-10T11:11:09.297Z,13.60
2023-05-10T11:12:09.353Z,13.65
2023-05-10T11:13:09.441Z,13.70
2023-05-10T11:14:09.610Z,13.74
2023-05-10T11:15:09.609Z,13.74
2023-05-10T11:16:09.710Z,13.75
2023-05-10T11:17:09.831Z,13.79
2023-05-10T11:18:09.882Z,13.83
2023-05-10T11:19:10.122Z,13.88
2023-05-10T11:20:10.032Z,13.91
2023-05-10T11:21:10.068Z,13.92
2023-05-10T11:22:10.189Z,13.90
2023-05-10T11:23:10.257Z,13.86
2023-05-10T11:24:10.334Z,13.83
2023-05-10T11:25:10.471Z,13.79
2023-05-10T11:26:10.550Z,13.76
2023-05-10T11:27:10.596Z,13.73
2023-05-10T11:28:10.637Z,13.71
2023-05-10T11:29:10.763Z,13.71
2023-05-10T11:30:10.802Z,13.68
2023-05-10T11:31:10.915Z,13.65
2023-05-10T11:32:10.996Z,13.67
2023-05-10T11:33:11.057Z,13.73
2023-05-10T11:34:11.157Z,13.79
2023-05-10T11:35:11.285Z,13.82
2023-05-10T11:36:11.317Z,13.86
2023-05-10T11:37:11.384Z,13.89
2023-05-10T11:38:11.488Z,13.88
2023-05-10T11:39:11.557Z,13.83
2023-05-10T11:40:11.614Z,13.76
2023-05-10T11:41:11.737Z,13.70
2023-05-10T11:42:11.797Z,13.68
2023-05-10T11:43:11.871Z,13.69
2023-05-10T11:44:11.999Z,13.73
2023-05-10T11:45:12.048Z,13.75
2023-05-10T11:46:12.200Z,13.75
2023-05-10T11:47:12.197Z,13.72
2023-05-10T11:48:12.305Z,13.70
2023-05-10T11:49:12.319Z,13.71
2023-05-10T11:50:12.419Z,13.71
2023-05-10T11:51:12.484Z,13.73
2023-05-10T11:52:12.544Z,13.77
2023-05-10T11:53:12.615Z,13.83
2023-05-10T11:54:12.709Z,13.91
2023-05-10T11:55:12.767Z,13.99
2023-05-10T11:56:12.900Z,14.08
2023-05-10T11:57:12.955Z,14.15
2023-05-10T11:58:13.046Z,14.18
2023-05-10T11:59:13.100Z,14.16
2023-05-10T12:00:13.197Z,14.16
2023-05-10T12:01:13.231Z,14.20
2023-05-10T12:02:13.365Z,14.25
2023-05-10T12:03:13.541Z,14.27
2023-05-10T12:04:13.680Z,14.27
2023-05-10T12:05:13.594Z,14.24
2023-05-10T12:06:13.698Z,14.22
2023-05-10T12:07:13.770Z,14.25
2023-05-10T12:08:13.824Z,14.31
2023-05-10T12:09:13.934Z,14.37
2023-05-10T12:10:14.082Z,14.41
2023-05-10T12:11:14.062Z,14.44
2023-05-10T12:12:14.146Z,14.44
2023-05-10T12:13:14.218Z,14.44
2023-05-10T12:14:14.289Z,14.47
2023-05-10T12:15:14.364Z,14.52
2023-05-10T12:16:15.030Z,14.53
2023-05-10T12:17:14.516Z,14.50
2023-05-10T12:18:14.590Z,14.45
2023-05-10T12:19:14.640Z,14.43
2023-05-10T12:20:15.027Z,14.44
2023-05-10T12:21:14.796Z,14.43
2023-05-10T12:22:14.904Z,14.39
2023-05-10T12:23:14.980Z,14.37
2023-05-10T12:24:15.035Z,14.36
2023-05-10T12:25:15.151Z,14.37
2023-05-10T12:26:15.256Z,14.36
2023-05-10T12:27:15.326Z,14.37
2023-05-10T12:28:15.402Z,14.39
2023-05-10T12:29:15.468Z,14.37
2023-05-10T12:30:15.797Z,14.33
2023-05-10T12:31:15.691Z,14.33
2023-05-10T12:32:15.833Z,14.33
2023-05-10T12:33:15.993Z,14.34
2023-05-10T12:34:15.828Z,14.36
2023-05-10T12:35:15.889Z,14.40
2023-05-10T12:36:15.983Z,14.47
2023-05-10T12:37:16.084Z,14.56
2023-05-10T12:38:16.235Z,14.63
2023-05-10T12:39:16.247Z,14.67
2023-05-10T12:40:16.486Z,14.70
2023-05-10T12:41:16.444Z,14.72
2023-05-10T12:42:16.483Z,14.73
2023-05-10T12:43:16.591Z,14.74
2023-05-10T12:44:16.637Z,14.74
2023-05-10T12:45:16.748Z,14.74
2023-05-10T12:46:17.019Z,14.74
2023-05-10T12:47:16.907Z,14.75
2023-05-10T12:48:17.041Z,14.77
2023-05-10T12:49:17.064Z,14.78
2023-05-10T12:50:17.443Z,14.80
2023-05-10T12:51:17.247Z,14.83
2023-05-10T12:52:17.327Z,14.87
2023-05-10T12:53:17.426Z,14.90
2023-05-10T12:54:17.517Z,14.92
2023-05-10T12:55:17.604Z,14.93
2023-05-10T12:56:17.698Z,14.93
2023-05-10T12:57:17.779Z,14.93
2023-05-10T12:58:31.391Z,14.95
2023-05-10T12:59:18.061Z,14.95
2023-05-10T13:00:25.273Z,14.98
2023-05-10T13:01:20.016Z,14.97
2023-05-10T13:02:19.689Z,14.95
2023-05-10T13:03:18.287Z,14.95
2023-05-10T13:04:18.442Z,14.95
2023-05-10T13:05:18.433Z,14.96